createdAt,value
2023-01-13T00:00:24.925Z,79.41
2023-01-13T00:03:12.163Z,79.60
2023-01-13T00:05:39.777Z,79.61
2023-01-13T00:08:07.192Z,79.68
2023-01-13T00:10:35.202Z,79.45
2023-01-13T00:13:02.921Z,79.75
2023-01-13T00:15:29.987Z,79.53
2023-01-13T00:17:57.017Z,79.59
2023-01-13T00:20:24.217Z,79.62
2023-01-13T00:22:51.779Z,79.74
2023-01-13T00:25:19.056Z,79.86
2023-01-13T00:27:46.150Z,80.04
2023-01-13T00:30:15.278Z,80.37
2023-01-13T00:32:42.366Z,80.52
2023-01-13T00:35:10.764Z,80.65
2023-01-13T00:37:39.731Z,80.56
2023-01-13T00:40:08.174Z,80.74
2023-01-13T00:42:53.424Z,80.96
2023-01-13T00:45:20.848Z,81.03
2023-01-13T00:47:48.121Z,81.07
2023-01-13T00:50:15.340Z,81.37
2023-01-13T00:52:42.578Z,81.40
2023-01-13T00:55:10.901Z,81.56
2023-01-13T00:57:40.229Z,81.86
2023-01-13T01:00:08.646Z,82.39
2023-01-13T01:02:36.060Z,82.93
2023-01-13T01:05:03.396Z,83.25
2023-01-13T01:07:32.885Z,83.55
2023-01-13T01:10:00.306Z,83.55
2023-01-13T01:12:27.338Z,83.91
2023-01-13T01:14:54.877Z,83.84
2023-01-13T01:17:21.957Z,83.72
2023-01-13T01:19:48.982Z,83.96
2023-01-13T01:22:16.253Z,83.82
2023-01-13T01:24:43.311Z,83.97
2023-01-13T01:27:10.417Z,83.78
2023-01-13T01:29:37.521Z,84.07
2023-01-13T01:32:04.881Z,83.80
2023-01-13T01:34:31.943Z,84.09
2023-01-13T01:36:59.253Z,83.94
2023-01-13T01:39:26.318Z,83.88
2023-01-13T01:42:11.425Z,84.16
2023-01-13T01:45:00.105Z,84.19
2023-01-13T01:47:28.357Z,84.76
2023-01-13T01:49:56.329Z,84.86
2023-01-13T01:52:28.129Z,85.09
2023-01-13T01:55:00.379Z,84.99
2023-01-13T01:57:32.410Z,84.91
2023-01-13T02:00:01.605Z,85.01
2023-01-13T02:02:40.670Z,85.11
2023-01-13T02:05:09.178Z,85.35
2023-01-13T02:07:38.416Z,85.12
2023-01-13T02:10:10.513Z,85.28
2023-01-13T02:12:38.833Z,85.19
2023-01-13T02:15:09.714Z,85.34
2023-01-13T02:17:54.663Z,85.34
2023-01-13T02:20:51.710Z,85.41
2023-01-13T02:24:05.469Z,85.30
2023-01-13T02:27:01.382Z,85.18
2023-01-13T02:30:06.006Z,85.12
2023-01-13T02:32:41.499Z,85.27
2023-01-13T02:35:15.889Z,85.37
2023-01-13T02:37:46.005Z,85.69
2023-01-13T02:40:21.204Z,85.90
2023-01-13T02:43:13.136Z,86.01
2023-01-13T02:45:44.414Z,86.50
2023-01-13T02:48:13.900Z,86.49
2023-01-13T02:50:45.823Z,86.75
2023-01-13T02:53:17.658Z,86.80
2023-01-13T02:55:48.537Z,86.77
2023-01-13T02:58:19.722Z,86.95
2023-01-13T03:00:47.789Z,86.93
2023-01-13T03:03:14.897Z,86.78
2023-01-13T03:05:45.741Z,86.83
2023-01-13T03:08:24.256Z,87.03
2023-01-13T03:11:02.541Z,86.74
2023-01-13T03:13:48.873Z,86.92
2023-01-13T03:16:24.493Z,86.90
2023-01-13T03:19:01.382Z,86.85
2023-01-13T03:21:29.151Z,86.94
2023-01-13T03:24:04.805Z,87.15
2023-01-13T03:26:38.119Z,87.45
2023-01-13T03:29:16.518Z,87.47
2023-01-13T03:31:48.895Z,87.56
2023-01-13T03:34:22.461Z,87.81
2023-01-13T03:36:55.305Z,87.96
2023-01-13T03:39:30.372Z,87.79
2023-01-13T03:42:02.509Z,87.85
2023-01-13T03:44:35.373Z,87.98
2023-01-13T03:47:10.803Z,88.11
2023-01-13T03:49:46.155Z,88.70
2023-01-13T03:52:18.507Z,88.80
2023-01-13T03:54:52.881Z,89.45
2023-01-13T03:57:25.098Z,89.75
2023-01-13T03:59:56.262Z,90.16
2023-01-13T04:02:35.021Z,90.63
2023-01-13T04:05:05.412Z,90.94
2023-01-13T04:07:42.169Z,91.47
2023-01-13T04:10:11.771Z,92.08
2023-01-13T04:13:00.794Z,92.09
2023-01-13T04:15:30.295Z,92.68
2023-01-13T04:18:02.731Z,92.85
2023-01-13T04:20:29.943Z,92.56
2023-01-13T04:22:57.099Z,92.48
2023-01-13T04:25:24.060Z,92.44
2023-01-13T04:27:51.345Z,92.51
2023-01-13T04:30:19.134Z,92.52
2023-01-13T04:32:46.112Z,92.55
2023-01-13T04:35:13.469Z,92.29
2023-01-13T04:37:40.464Z,92.56
2023-01-13T04:40:09.538Z,92.46
2023-01-13T04:42:37.066Z,92.25
2023-01-13T04:45:04.390Z,92.33
2023-01-13T04:47:31.314Z,92.58
2023-01-13T04:49:58.568Z,92.59
2023-01-13T04:52:25.946Z,92.59
2023-01-13T04:54:52.932Z,92.38
2023-01-13T04:57:20.170Z,92.36
2023-01-13T04:59:47.148Z,92.62
2023-01-13T05:02:19.887Z,92.31
2023-01-13T05:04:47.625Z,92.52
2023-01-13T05:07:14.910Z,92.20
2023-01-13T05:09:41.889Z,92.41
2023-01-13T05:12:27.860Z,92.83
2023-01-13T05:15:12.348Z,92.80
2023-01-13T05:17:39.819Z,92.96
2023-01-13T05:20:08.275Z,93.41
2023-01-13T05:22:53.449Z,93.45
2023-01-13T05:25:25.183Z,93.19
2023-01-13T05:27:53.606Z,93.55
2023-01-13T05:30:21.987Z,94.03
2023-01-13T05:32:49.097Z,94.64
2023-01-13T05:35:16.898Z,94.75
2023-01-13T05:37:44.173Z,95.00
2023-01-13T05:40:31.786Z,94.95
2023-01-13T05:43:24.761Z,95.22
2023-01-13T05:45:55.161Z,95.79
2023-01-13T05:48:25.497Z,96.11
2023-01-13T05:50:54.111Z,96.51
2023-01-13T05:53:21.199Z,96.40
2023-01-13T05:55:48.291Z,96.97
2023-01-13T05:58:17.109Z,96.93
2023-01-13T06:00:44.467Z,97.10
2023-01-13T06:03:11.929Z,97.55
2023-01-13T06:05:39.598Z,97.51
2023-01-13T06:08:08.696Z,97.69
2023-01-13T06:10:36.973Z,97.89
2023-01-13T06:13:04.260Z,98.27
2023-01-13T06:15:31.389Z,98.02
2023-01-13T06:17:58.629Z,97.62
2023-01-13T06:20:25.889Z,97.92
2023-01-13T06:22:55.479Z,97.91
2023-01-13T06:25:33.621Z,98.12
2023-01-13T06:28:02.066Z,98.08
2023-01-13T06:30:32.240Z,98.23
2023-01-13T06:33:03.225Z,98.63
2023-01-13T06:35:34.206Z,98.22
2023-01-13T06:38:04.769Z,98.73
2023-01-13T06:40:32.202Z,98.56
2023-01-13T06:43:18.919Z,98.17
2023-01-13T06:45:50.486Z,98.26
2023-01-13T06:48:18.954Z,98.03
2023-01-13T06:50:46.392Z,98.02
2023-01-13T06:53:13.498Z,97.64
2023-01-13T06:55:40.535Z,97.61
2023-01-13T06:58:07.769Z,97.74
2023-01-13T07:00:36.565Z,97.54
2023-01-13T07:03:14.755Z,97.78
2023-01-13T07:05:42.500Z,97.60
2023-01-13T07:08:10.906Z,97.58
2023-01-13T07:10:39.152Z,97.44
2023-01-13T07:13:25.023Z,97.18
2023-01-13T07:16:00.305Z,97.29
2023-01-13T07:18:28.694Z,97.07
2023-01-13T07:20:57.870Z,97.06
2023-01-13T07:23:25.661Z,96.84
2023-01-13T07:25:52.802Z,96.79
2023-01-13T07:28:20.040Z,96.91
2023-01-13T07:30:47.354Z,96.75
2023-01-13T07:33:14.442Z,96.83
2023-01-13T07:35:41.543Z,96.81
2023-01-13T07:38:08.790Z,96.65
2023-01-13T07:40:35.804Z,96.69
2023-01-13T07:43:20.554Z,96.75
2023-01-13T07:45:47.891Z,96.95
2023-01-13T07:48:16.505Z,96.86
2023-01-13T07:50:44.278Z,96.91
2023-01-13T07:53:11.471Z,96.87
2023-01-13T07:55:41.994Z,96.76
2023-01-13T07:58:09.492Z,97.20
2023-01-13T08:00:37.324Z,97.09
2023-01-13T08:03:04.484Z,96.98
2023-01-13T08:05:31.776Z,97.17
2023-01-13T08:07:58.851Z,97.36
2023-01-13T08:10:25.864Z,97.06
2023-01-13T08:13:10.922Z,97.15
2023-01-13T08:15:38.546Z,97.11
2023-01-13T08:18:05.818Z,97.27
2023-01-13T08:20:32.922Z,97.11
2023-01-13T08:23:01.250Z,97.37
2023-01-13T08:25:29.878Z,97.29
2023-01-13T08:28:00.233Z,97.29
2023-01-13T08:30:28.064Z,97.56
2023-01-13T08:32:55.329Z,97.27
2023-01-13T08:35:23.004Z,97.42
2023-01-13T08:37:51.148Z,97.36
2023-01-13T08:40:21.011Z,97.40
2023-01-13T08:42:48.801Z,97.49
2023-01-13T08:45:16.376Z,97.46
2023-01-13T08:47:43.520Z,97.13
2023-01-13T08:50:12.637Z,97.09
2023-01-13T08:52:39.717Z,97.06
2023-01-13T08:55:07.895Z,97.02
2023-01-13T08:57:35.645Z,97.08
2023-01-13T09:00:03.381Z,96.63
2023-01-13T09:02:31.312Z,96.55
2023-01-13T09:05:00.781Z,96.30
2023-01-13T09:07:28.064Z,96.18
2023-01-13T09:09:56.959Z,95.96
2023-01-13T09:12:41.771Z,95.71
2023-01-13T09:15:12.299Z,95.60
2023-01-13T09:17:39.404Z,95.36
2023-01-13T09:20:07.470Z,95.10
2023-01-13T09:22:37.722Z,94.81
2023-01-13T09:25:05.429Z,94.66
2023-01-13T09:27:32.746Z,94.37
2023-01-13T09:30:00.070Z,94.06
2023-01-13T09:32:27.509Z,93.91
2023-01-13T09:35:01.976Z,93.75
2023-01-13T09:37:31.344Z,93.65
2023-01-13T09:39:58.812Z,93.21
2023-01-13T09:42:54.723Z,92.94
2023-01-13T09:45:27.105Z,92.35
2023-01-13T09:48:01.081Z,92.04
2023-01-13T09:50:42.582Z,91.77
2023-01-13T09:53:15.828Z,91.64
2023-01-13T09:55:45.552Z,91.34
2023-01-13T09:58:18.409Z,91.26
2023-01-13T10:00:53.231Z,91.08
2023-01-13T10:03:27.459Z,90.68
2023-01-13T10:06:04.723Z,90.66
2023-01-13T10:08:34.940Z,90.42
2023-01-13T10:11:35.716Z,90.24
2023-01-13T10:14:43.523Z,89.79
2023-01-13T10:17:21.855Z,89.43
2023-01-13T10:19:54.319Z,89.71
2023-01-13T10:22:53.135Z,89.40
2023-01-13T10:25:29.404Z,89.03
2023-01-13T10:28:04.468Z,88.86
2023-01-13T10:30:39.043Z,88.66
2023-01-13T10:33:14.407Z,88.71
2023-01-13T10:36:00.687Z,88.12
2023-01-13T10:38:30.795Z,87.97
2023-01-13T10:41:00.780Z,87.58
2023-01-13T10:43:29.342Z,87.43
2023-01-13T10:46:05.344Z,87.34
2023-01-13T10:48:42.302Z,87.03
2023-01-13T10:51:19.515Z,86.74
2023-01-13T10:53:54.911Z,86.83
2023-01-13T10:56:23.958Z,86.65
2023-01-13T10:58:51.319Z,86.24
2023-01-13T11:01:31.175Z,86.42
2023-01-13T11:04:07.928Z,86.10
2023-01-13T11:06:46.526Z,85.74
2023-01-13T11:09:24.910Z,85.45
2023-01-13T11:11:56.079Z,85.28
2023-01-13T11:14:39.576Z,84.89
2023-01-13T11:17:16.006Z,84.56
2023-01-13T11:19:49.266Z,84.45
2023-01-13T11:22:29.449Z,84.68
2023-01-13T11:25:00.115Z,83.85
2023-01-13T11:27:39.886Z,84.23
2023-01-13T11:30:22.287Z,83.83
2023-01-13T11:33:02.651Z,83.40
2023-01-13T11:35:32.914Z,83.15
2023-01-13T11:38:05.700Z,83.02
2023-01-13T11:40:38.682Z,82.98
2023-01-13T11:43:15.348Z,82.59
2023-01-13T11:45:46.749Z,82.60
2023-01-13T11:48:17.573Z,82.54
2023-01-13T11:50:53.046Z,82.56
2023-01-13T11:53:35.362Z,82.46
2023-01-13T11:56:24.500Z,82.30
2023-01-13T11:59:18.822Z,82.30
2023-01-13T12:02:05.369Z,82.35
2023-01-13T12:04:42.613Z,82.15
2023-01-13T12:07:23.169Z,82.09
2023-01-13T12:10:07.696Z,82.15
2023-01-13T12:12:52.332Z,81.97
2023-01-13T12:15:57.527Z,81.99
2023-01-13T12:18:43.162Z,82.02
2023-01-13T12:21:22.199Z,81.88
2023-01-13T12:23:59.540Z,81.47
2023-01-13T12:26:30.005Z,81.74
2023-01-13T12:29:02.631Z,81.80
2023-01-13T12:31:31.204Z,81.59
2023-01-13T12:34:24.521Z,81.66
2023-01-13T12:36:59.924Z,81.63
2023-01-13T12:39:38.682Z,81.61
2023-01-13T12:42:30.205Z,81.77
2023-01-13T12:45:30.376Z,81.58
2023-01-13T12:47:58.920Z,81.40
2023-01-13T12:50:43.804Z,81.50
2023-01-13T12:53:38.165Z,81.25
2023-01-13T12:56:24.138Z,81.09
2023-01-13T12:58:51.849Z,80.96
2023-01-13T13:01:19.465Z,81.02
2023-01-13T13:04:11.147Z,80.77
2023-01-13T13:06:42.762Z,80.82
2023-01-13T13:09:23.994Z,80.71
2023-01-13T13:12:20.894Z,80.79
2023-01-13T13:15:05.335Z,80.69
2023-01-13T13:18:08.806Z,80.89
2023-01-13T13:20:57.850Z,80.81
2023-01-13T13:23:44.408Z,80.67
2023-01-13T13:26:25.243Z,80.96
2023-01-13T13:29:15.595Z,81.13
2023-01-13T13:32:03.603Z,80.82
2023-01-13T13:34:39.585Z,81.13
2023-01-13T13:37:25.943Z,80.91
2023-01-13T13:40:11.249Z,80.95
2023-01-13T13:43:01.618Z,80.83
2023-01-13T13:45:56.002Z,80.77
2023-01-13T13:48:27.403Z,80.66
2023-01-13T13:50:58.312Z,80.64
2023-01-13T13:53:28.147Z,80.61
2023-01-13T13:56:01.041Z,80.95
2023-01-13T13:58:30.242Z,81.03
2023-01-13T14:00:58.213Z,81.04
2023-01-13T14:03:30.585Z,81.31
2023-01-13T14:05:59.895Z,81.31
2023-01-13T14:08:29.365Z,81.22
2023-01-13T14:10:56.751Z,81.34
2023-01-13T14:13:26.392Z,81.18
2023-01-13T14:15:59.996Z,81.40
2023-01-13T14:18:29.085Z,81.49
2023-01-13T14:20:59.722Z,81.53
2023-01-13T14:23:29.943Z,81.76
2023-01-13T14:26:02.564Z,81.99
2023-01-13T14:28:33.103Z,82.18
2023-01-13T14:31:01.305Z,82.38
2023-01-13T14:33:38.831Z,82.43
2023-01-13T14:36:18.340Z,82.51
2023-01-13T14:38:47.749Z,82.66
2023-01-13T14:41:27.077Z,82.74
2023-01-13T14:43:57.369Z,82.70
2023-01-13T14:46:25.664Z,82.72
2023-01-13T14:48:55.654Z,82.63
2023-01-13T14:51:29.231Z,82.63
2023-01-13T14:53:57.505Z,82.65
2023-01-13T14:56:51.342Z,82.67
2023-01-13T14:59:45.001Z,82.73
2023-01-13T15:02:45.576Z,82.77
2023-01-13T15:05:43.772Z,82.79
2023-01-13T15:08:36.161Z,82.83
2023-01-13T15:11:05.913Z,82.71
2023-01-13T15:13:44.981Z,82.75
2023-01-13T15:16:26.056Z,82.70
2023-01-13T15:18:54.171Z,82.66
2023-01-13T15:21:23.185Z,82.67
2023-01-13T15:23:50.421Z,82.67
2023-01-13T15:26:22.368Z,82.54
2023-01-13T15:28:50.364Z,82.57
2023-01-13T15:31:17.915Z,82.49
2023-01-13T15:33:45.152Z,82.44
2023-01-13T15:36:23.931Z,82.41
2023-01-13T15:38:51.306Z,82.45
2023-01-13T15:41:38.920Z,82.35
2023-01-13T15:44:32.464Z,82.53
2023-01-13T15:47:03.132Z,82.49
2023-01-13T15:49:35.338Z,82.43
2023-01-13T15:52:03.169Z,82.45
2023-01-13T15:54:30.865Z,82.35
2023-01-13T15:56:58.098Z,82.19
2023-01-13T15:59:28.479Z,82.17
2023-01-13T16:01:55.600Z,81.89
2023-01-13T16:04:22.879Z,81.95
2023-01-13T16:06:50.113Z,81.86
2023-01-13T16:09:17.993Z,81.94
2023-01-13T16:11:45.251Z,81.74
2023-01-13T16:14:12.323Z,81.54
2023-01-13T16:16:39.555Z,81.52
2023-01-13T16:19:06.816Z,81.30
2023-01-13T16:21:33.936Z,81.30
2023-01-13T16:24:01.401Z,81.22
2023-01-13T16:26:30.609Z,81.06
2023-01-13T16:28:59.273Z,81.08
2023-01-13T16:31:32.194Z,80.99
2023-01-13T16:34:00.169Z,80.92
2023-01-13T16:36:27.912Z,80.71
2023-01-13T16:38:55.444Z,80.71
2023-01-13T16:41:24.930Z,80.57
2023-01-13T16:43:52.343Z,80.42
2023-01-13T16:46:26.773Z,80.57
2023-01-13T16:48:55.136Z,80.59
2023-01-13T16:51:23.308Z,80.43
2023-01-13T16:53:51.483Z,80.06
2023-01-13T16:56:24.789Z,80.26
2023-01-13T16:58:53.173Z,80.31
2023-01-13T17:01:25.839Z,80.15
2023-01-13T17:03:53.904Z,80.18
2023-01-13T17:06:25.411Z,80.15
2023-01-13T17:08:53.878Z,79.91
2023-01-13T17:11:21.653Z,80.02
2023-01-13T17:13:48.875Z,79.90
2023-01-13T17:16:22.668Z,79.79
2023-01-13T17:18:50.547Z,79.83
2023-01-13T17:21:18.037Z,79.87
2023-01-13T17:23:45.358Z,79.94
2023-01-13T17:26:26.011Z,80.10
2023-01-13T17:28:53.079Z,80.15
2023-01-13T17:31:20.459Z,80.22
2023-01-13T17:33:47.679Z,80.23
2023-01-13T17:36:14.946Z,80.15
2023-01-13T17:38:43.199Z,80.26
2023-01-13T17:41:10.196Z,80.47
2023-01-13T17:43:37.469Z,80.62
2023-01-13T17:46:08.084Z,81.19
2023-01-13T17:48:35.377Z,81.64
2023-01-13T17:51:03.658Z,82.01
2023-01-13T17:53:31.223Z,82.25
2023-01-13T17:55:58.479Z,82.37
2023-01-13T17:58:25.509Z,82.55
2023-01-13T18:00:53.145Z,82.63
2023-01-13T18:03:21.116Z,82.78
2023-01-13T18:05:48.222Z,82.87
2023-01-13T18:08:16.090Z,82.93
2023-01-13T18:10:43.196Z,82.92
2023-01-13T18:13:10.713Z,82.84
2023-01-13T18:15:38.285Z,82.80
2023-01-13T18:18:05.470Z,82.87
2023-01-13T18:20:50.183Z,82.86
2023-01-13T18:23:38.713Z,82.68
2023-01-13T18:26:34.676Z,82.69
2023-01-13T18:29:03.026Z,82.55
2023-01-13T18:31:29.998Z,82.63
2023-01-13T18:33:57.340Z,82.64
2023-01-13T18:36:24.845Z,82.66
2023-01-13T18:38:53.195Z,82.75
2023-01-13T18:41:38.267Z,82.69
2023-01-13T18:44:05.969Z,82.62
2023-01-13T18:46:33.030Z,82.71
2023-01-13T18:49:00.101Z,82.78
2023-01-13T18:51:27.390Z,82.69
2023-01-13T18:53:54.871Z,82.71
2023-01-13T18:56:22.320Z,82.75
2023-01-13T18:58:51.984Z,82.68
2023-01-13T19:01:22.650Z,82.62
2023-01-13T19:03:50.315Z,82.60
2023-01-13T19:06:17.323Z,82.67
2023-01-13T19:08:44.577Z,82.61
2023-01-13T19:11:11.670Z,82.62
2023-01-13T19:13:39.672Z,82.66
2023-01-13T19:16:09.262Z,82.64
2023-01-13T19:18:37.238Z,82.81
2023-01-13T19:21:08.290Z,82.85
2023-01-13T19:23:35.885Z,82.92
2023-01-13T19:26:04.421Z,83.04
2023-01-13T19:28:31.809Z,83.23
2023-01-13T19:31:02.834Z,83.21
2023-01-13T19:33:32.777Z,83.36
2023-01-13T19:36:01.167Z,83.43
2023-01-13T19:38:29.456Z,83.38
2023-01-13T19:40:58.083Z,83.36
2023-01-13T19:43:43.900Z,83.42
2023-01-13T19:46:12.170Z,83.44
2023-01-13T19:48:39.790Z,83.55
2023-01-13T19:51:07.864Z,83.54
2023-01-13T19:53:34.920Z,83.41
2023-01-13T19:56:02.406Z,83.48
2023-01-13T19:58:29.999Z,83.41
2023-01-13T20:00:57.089Z,83.33
2023-01-13T20:03:26.171Z,83.35
2023-01-13T20:05:53.746Z,83.24
2023-01-13T20:08:22.212Z,83.25
2023-01-13T20:10:50.532Z,83.21
2023-01-13T20:13:18.486Z,83.07
2023-01-13T20:15:45.662Z,82.99
2023-01-13T20:18:13.226Z,82.87
2023-01-13T20:20:40.483Z,82.87
2023-01-13T20:23:07.579Z,82.92
2023-01-13T20:25:34.787Z,82.87
2023-01-13T20:28:02.440Z,82.79
2023-01-13T20:30:29.423Z,82.85
2023-01-13T20:32:56.720Z,82.79
2023-01-13T20:35:24.428Z,82.76
2023-01-13T20:37:51.527Z,82.81
2023-01-13T20:40:18.654Z,82.80
2023-01-13T20:42:49.161Z,82.77
2023-01-13T20:45:20.894Z,82.81
2023-01-13T20:47:48.839Z,82.75
2023-01-13T20:50:16.852Z,82.87
2023-01-13T20:52:44.025Z,82.81
2023-01-13T20:55:12.612Z,82.80
2023-01-13T20:57:40.174Z,82.72
2023-01-13T21:00:10.422Z,82.72
2023-01-13T21:02:39.645Z,82.80
2023-01-13T21:05:07.871Z,82.80
2023-01-13T21:07:35.152Z,82.84
2023-01-13T21:10:02.355Z,82.82
2023-01-13T21:12:46.960Z,82.85
2023-01-13T21:15:22.221Z,82.92
2023-01-13T21:18:08.808Z,83.01
2023-01-13T21:20:39.523Z,83.06
2023-01-13T21:23:07.817Z,83.03
2023-01-13T21:25:37.357Z,83.09
2023-01-13T21:28:06.413Z,83.18
2023-01-13T21:30:33.626Z,83.17
2023-01-13T21:33:01.054Z,83.22
2023-01-13T21:35:29.224Z,83.15
2023-01-13T21:37:59.287Z,83.15
2023-01-13T21:40:26.421Z,83.06
2023-01-13T21:43:11.101Z,83.10
2023-01-13T21:45:59.051Z,83.10
2023-01-13T21:48:26.297Z,83.18
2023-01-13T21:50:53.567Z,83.16
2023-01-13T21:53:20.564Z,83.15
2023-01-13T21:55:51.537Z,83.18
2023-01-13T21:58:18.908Z,83.17
2023-01-13T22:00:49.100Z,83.24
2023-01-13T22:03:18.581Z,83.21
2023-01-13T22:05:46.314Z,83.22
2023-01-13T22:08:15.201Z,83.21
2023-01-13T22:10:57.426Z,83.16
2023-01-13T22:13:42.544Z,83.24
2023-01-13T22:16:10.299Z,83.10
2023-01-13T22:18:38.001Z,83.18
2023-01-13T22:21:05.199Z,83.14
2023-01-13T22:23:32.470Z,83.11
2023-01-13T22:26:05.481Z,83.11
2023-01-13T22:28:34.524Z,83.29
2023-01-13T22:31:01.547Z,83.15
2023-01-13T22:33:28.715Z,83.29
2023-01-13T22:35:58.836Z,83.29
2023-01-13T22:38:25.828Z,83.26
2023-01-13T22:41:00.058Z,83.18
2023-01-13T22:43:27.853Z,83.22
2023-01-13T22:46:01.464Z,83.30
2023-01-13T22:48:28.969Z,83.41
2023-01-13T22:50:56.447Z,83.42
2023-01-13T22:53:23.921Z,83.37
2023-01-13T22:55:57.744Z,83.46
2023-01-13T22:58:25.355Z,83.45
2023-01-13T23:00:52.692Z,83.46
2023-01-13T23:03:20.474Z,83.62
2023-01-13T23:05:48.264Z,83.65
2023-01-13T23:08:15.842Z,83.63
2023-01-13T23:10:43.219Z,83.65
2023-01-13T23:13:11.411Z,83.81
2023-01-13T23:15:38.498Z,83.76
2023-01-13T23:18:05.751Z,83.80
2023-01-13T23:20:33.098Z,83.96
2023-01-13T23:23:00.196Z,83.83
2023-01-13T23:25:27.289Z,83.92
2023-01-13T23:27:55.742Z,83.98
2023-01-13T23:30:23.454Z,84.03
2023-01-13T23:32:50.495Z,84.16
2023-01-13T23:35:18.488Z,84.23
2023-01-13T23:37:45.761Z,84.07
2023-01-13T23:40:15.187Z,83.98
2023-01-13T23:42:42.274Z,84.16
2023-01-13T23:45:12.572Z,84.06
2023-01-13T23:47:41.236Z,84.11
2023-01-13T23:50:09.565Z,84.02
2023-01-13T23:52:36.600Z,83.98
2023-01-13T23:55:03.530Z,83.94
2023-01-13T23:57:30.662Z,83.95
2023-01-13T23:59:57.589Z,83.84
